sensor_id;sensor_type;location;lat;lon;timestamp;pressure;altitude;pressure_sealevel;temperature;humidity
28606;BME280;46498;49.968;7.754;2023-03-01T00:01:27;98020.00;;;-1.05;73.07
28606;BME280;46498;49.968;7.754;2023-03-01T00:06:28;98014.00;;;-0.94;72.96
28606;BME280;46498;49.968;7.754;2023-03-01T00:11:31;98019.00;;;-1.03;73.59
28606;BME280;46498;49.968;7.754;2023-03-01T00:16:36;98031.00;;;-1.17;74.42
28606;BME280;46498;49.968;7.754;2023-03-01T00:21:39;98021.00;;;-1.20;75.03
28606;BME280;46498;49.968;7.754;2023-03-01T00:26:40;98022.00;;;-1.30;75.90
28606;BME280;46498;49.968;7.754;2023-03-01T00:31:41;98024.00;;;-1.33;76.19
28606;BME280;46498;49.968;7.754;2023-03-01T00:36:42;98034.00;;;-1.20;75.94
28606;BME280;46498;49.968;7.754;2023-03-01T00:41:43;98028.00;;;-1.17;76.16
28606;BME280;46498;49.968;7.754;2023-03-01T00:46:44;98031.00;;;-1.32;77.00
28606;BME280;46498;49.968;7.754;2023-03-01T00:51:44;98026.00;;;-1.35;77.00
28606;BME280;46498;49.968;7.754;2023-03-01T00:56:45;98023.00;;;-1.37;77.03
28606;BME280;46498;49.968;7.754;2023-03-01T01:01:46;98014.00;;;-1.33;76.81
28606;BME280;46498;49.968;7.754;2023-03-01T01:06:47;98012.00;;;-1.27;76.69
28606;BME280;46498;49.968;7.754;2023-03-01T01:11:50;98010.00;;;-1.42;77.80
28606;BME280;46498;49.968;7.754;2023-03-01T01:16:51;97999.00;;;-1.40;77.55
28606;BME280;46498;49.968;7.754;2023-03-01T01:21:52;97992.00;;;-1.43;77.96
28606;BME280;46498;49.968;7.754;2023-03-01T01:26:53;97994.00;;;-1.50;78.48
28606;BME280;46498;49.968;7.754;2023-03-01T01:31:54;97981.00;;;-1.45;78.19
28606;BME280;46498;49.968;7.754;2023-03-01T01:36:55;97975.00;;;-1.44;78.03
28606;BME280;46498;49.968;7.754;2023-03-01T01:41:55;97974.00;;;-1.55;78.96
28606;BME280;46498;49.968;7.754;2023-03-01T01:47:11;97958.00;;;-1.43;78.34
28606;BME280;46498;49.968;7.754;2023-03-01T01:52:20;97951.00;;;-1.26;77.71
28606;BME280;46498;49.968;7.754;2023-03-01T01:57:29;97954.00;;;-1.27;77.42
28606;BME280;46498;49.968;7.754;2023-03-01T02:02:33;97962.00;;;-1.40;78.50
28606;BME280;46498;49.968;7.754;2023-03-01T02:07:34;97939.00;;;-1.41;78.34
28606;BME280;46498;49.968;7.754;2023-03-01T02:12:36;97935.00;;;-1.47;78.75
28606;BME280;46498;49.968;7.754;2023-03-01T02:17:38;97922.00;;;-1.47;79.60
28606;BME280;46498;49.968;7.754;2023-03-01T02:22:38;97930.00;;;-1.50;79.79
28606;BME280;46498;49.968;7.754;2023-03-01T02:28:31;97923.00;;;-1.41;79.61
28606;BME280;46498;49.968;7.754;2023-03-01T02:33:34;97918.00;;;-1.44;79.07
28606;BME280;46498;49.968;7.754;2023-03-01T02:38:36;97922.00;;;-1.47;79.76
28606;BME280;46498;49.968;7.754;2023-03-01T02:43:37;97917.00;;;-1.40;79.51
28606;BME280;46498;49.968;7.754;2023-03-01T02:48:47;97912.00;;;-1.33;79.42
28606;BME280;46498;49.968;7.754;2023-03-01T02:57:20;97913.00;;;-1.29;78.66
28606;BME280;46498;49.968;7.754;2023-03-01T03:02:25;97900.00;;;-1.36;79.16
28606;BME280;46498;49.968;7.754;2023-03-01T03:07:51;97899.00;;;-1.38;79.40
28606;BME280;46498;49.968;7.754;2023-03-01T03:12:58;97884.00;;;-1.24;78.36
28606;BME280;46498;49.968;7.754;2023-03-01T03:17:59;97875.00;;;-1.19;77.94
28606;BME280;46498;49.968;7.754;2023-03-01T03:23:00;97870.00;;;-1.16;77.66
28606;BME280;46498;49.968;7.754;2023-03-01T03:28:02;97866.00;;;-1.15;77.67
28606;BME280;46498;49.968;7.754;2023-03-01T03:33:03;97860.00;;;-1.13;77.81
28606;BME280;46498;49.968;7.754;2023-03-01T03:38:06;97864.00;;;-1.23;78.68
28606;BME280;46498;49.968;7.754;2023-03-01T03:43:21;97852.00;;;-1.32;79.43
28606;BME280;46498;49.968;7.754;2023-03-01T03:48:23;97854.00;;;-1.43;79.91
28606;BME280;46498;49.968;7.754;2023-03-01T03:53:26;97850.00;;;-1.38;79.31
28606;BME280;46498;49.968;7.754;2023-03-01T03:58:27;97843.00;;;-1.41;79.29
28606;BME280;46498;49.968;7.754;2023-03-01T04:03:29;97836.00;;;-1.44;78.85
28606;BME280;46498;49.968;7.754;2023-03-01T04:08:31;97833.00;;;-1.44;79.36
28606;BME280;46498;49.968;7.754;2023-03-01T04:13:31;97830.00;;;-1.24;78.07
28606;BME280;46498;49.968;7.754;2023-03-01T04:18:32;97826.00;;;-1.30;78.23
28606;BME280;46498;49.968;7.754;2023-03-01T04:23:33;97826.00;;;-1.47;78.99
28606;BME280;46498;49.968;7.754;2023-03-01T04:28:39;97822.00;;;-1.51;78.93
28606;BME280;46498;49.968;7.754;2023-03-01T04:33:54;97819.00;;;-1.65;80.11
28606;BME280;46498;49.968;7.754;2023-03-01T04:38:56;97826.00;;;-1.57;80.22
28606;BME280;46498;49.968;7.754;2023-03-01T04:43:57;97831.00;;;-1.71;81.04
28606;BME280;46498;49.968;7.754;2023-03-01T04:49:00;97826.00;;;-1.87;82.23
28606;BME280;46498;49.968;7.754;2023-03-01T04:54:01;97831.00;;;-1.86;82.06
28606;BME280;46498;49.968;7.754;2023-03-01T04:59:02;97836.00;;;-1.74;81.02
28606;BME280;46498;49.968;7.754;2023-03-01T05:04:06;97835.00;;;-1.75;81.21
28606;BME280;46498;49.968;7.754;2023-03-01T05:09:07;97824.00;;;-1.72;81.03
28606;BME280;46498;49.968;7.754;2023-03-01T05:14:09;97830.00;;;-1.71;80.80
28606;BME280;46498;49.968;7.754;2023-03-01T05:19:09;97819.00;;;-1.81;81.10
28606;BME280;46498;49.968;7.754;2023-03-01T05:24:15;97814.00;;;-1.80;81.29
28606;BME280;46498;49.968;7.754;2023-03-01T05:29:18;97810.00;;;-1.75;81.14
28606;BME280;46498;49.968;7.754;2023-03-01T05:34:28;97812.00;;;-1.77;81.05
28606;BME280;46498;49.968;7.754;2023-03-01T05:39:29;97806.00;;;-1.76;81.19
28606;BME280;46498;49.968;7.754;2023-03-01T05:44:32;97814.00;;;-1.70;80.79
28606;BME280;46498;49.968;7.754;2023-03-01T05:49:32;97824.00;;;-1.70;80.38
28606;BME280;46498;49.968;7.754;2023-03-01T05:54:33;97813.00;;;-1.68;80.53
28606;BME280;46498;49.968;7.754;2023-03-01T05:59:34;97809.00;;;-1.63;80.03
28606;BME280;46498;49.968;7.754;2023-03-01T06:04:35;97801.00;;;-1.66;80.04
28606;BME280;46498;49.968;7.754;2023-03-01T06:09:36;97803.00;;;-1.60;79.45
28606;BME280;46498;49.968;7.754;2023-03-01T06:14:37;97799.00;;;-1.54;78.54
28606;BME280;46498;49.968;7.754;2023-03-01T06:19:38;97801.00;;;-1.61;78.86
28606;BME280;46498;49.968;7.754;2023-03-01T06:24:39;97808.00;;;-1.60;78.42
28606;BME280;46498;49.968;7.754;2023-03-01T06:29:40;97812.00;;;-1.58;78.79
28606;BME280;46498;49.968;7.754;2023-03-01T06:34:43;97814.00;;;-1.47;77.81
28606;BME280;46498;49.968;7.754;2023-03-01T06:39:44;97811.00;;;-1.53;77.31
28606;BME280;46498;49.968;7.754;2023-03-01T06:44:44;97800.00;;;-1.53;76.79
28606;BME280;46498;49.968;7.754;2023-03-01T06:49:46;97801.00;;;-1.61;77.19
28606;BME280;46498;49.968;7.754;2023-03-01T06:54:47;97794.00;;;-1.45;76.56
28606;BME280;46498;49.968;7.754;2023-03-01T06:59:48;97804.00;;;-1.44;76.18
28606;BME280;46498;49.968;7.754;2023-03-01T07:04:50;97804.00;;;-1.35;75.58
28606;BME280;46498;49.968;7.754;2023-03-01T07:09:51;97798.00;;;-1.28;75.68
28606;BME280;46498;49.968;7.754;2023-03-01T07:14:52;97800.00;;;-1.03;74.43
28606;BME280;46498;49.968;7.754;2023-03-01T07:19:52;97806.00;;;-0.78;72.47
28606;BME280;46498;49.968;7.754;2023-03-01T07:24:53;97807.00;;;-0.61;72.16
28606;BME280;46498;49.968;7.754;2023-03-01T07:29:54;97811.00;;;-0.45;71.10
28606;BME280;46498;49.968;7.754;2023-03-01T07:34:55;97809.00;;;-0.41;69.45
28606;BME280;46498;49.968;7.754;2023-03-01T07:39:56;97809.00;;;-0.43;70.49
28606;BME280;46498;49.968;7.754;2023-03-01T07:44:57;97814.00;;;-0.45;70.37
28606;BME280;46498;49.968;7.754;2023-03-01T07:49:58;97802.00;;;-0.57;70.07
28606;BME280;46498;49.968;7.754;2023-03-01T07:54:59;97802.00;;;-0.42;70.36
28606;BME280;46498;49.968;7.754;2023-03-01T07:59:59;97796.00;;;-0.41;72.14
28606;BME280;46498;49.968;7.754;2023-03-01T08:05:00;97787.00;;;-0.35;70.08
28606;BME280;46498;49.968;7.754;2023-03-01T08:10:01;97791.00;;;-0.55;71.34
28606;BME280;46498;49.968;7.754;2023-03-01T08:15:03;97793.00;;;-0.46;71.17
28606;BME280;46498;49.968;7.754;2023-03-01T08:20:05;97800.00;;;-0.57;70.65
28606;BME280;46498;49.968;7.754;2023-03-01T08:25:08;97792.00;;;-0.60;71.29
28606;BME280;46498;49.968;7.754;2023-03-01T08:30:10;97791.00;;;-0.45;72.11
28606;BME280;46498;49.968;7.754;2023-03-01T08:35:11;97775.00;;;-0.13;71.58
28606;BME280;46498;49.968;7.754;2023-03-01T08:40:13;97788.00;;;0.02;71.37
28606;BME280;46498;49.968;7.754;2023-03-01T08:45:14;97787.00;;;0.20;68.31
28606;BME280;46498;49.968;7.754;2023-03-01T08:50:18;97777.00;;;0.54;69.81
28606;BME280;46498;49.968;7.754;2023-03-01T08:55:19;97772.00;;;0.68;66.83
28606;BME280;46498;49.968;7.754;2023-03-01T09:00:21;97767.00;;;0.96;68.04
28606;BME280;46498;49.968;7.754;2023-03-01T09:05:22;97766.00;;;0.97;66.49
28606;BME280;46498;49.968;7.754;2023-03-01T09:10:22;97769.00;;;0.59;67.49
28606;BME280;46498;49.968;7.754;2023-03-01T09:15:23;97755.00;;;0.86;66.15
28606;BME280;46498;49.968;7.754;2023-03-01T09:20:24;97746.00;;;0.77;65.34
28606;BME280;46498;49.968;7.754;2023-03-01T09:25:25;97748.00;;;1.44;64.91
28606;BME280;46498;49.968;7.754;2023-03-01T09:30:26;97749.00;;;1.64;62.83
28606;BME280;46498;49.968;7.754;2023-03-01T09:35:27;97743.00;;;1.38;66.85
28606;BME280;46498;49.968;7.754;2023-03-01T09:40:29;97740.00;;;1.36;62.50
28606;BME280;46498;49.968;7.754;2023-03-01T09:45:35;97742.00;;;1.70;63.41
28606;BME280;46498;49.968;7.754;2023-03-01T09:50:41;97744.00;;;2.17;63.38
28606;BME280;46498;49.968;7.754;2023-03-01T09:56:05;97749.00;;;2.45;62.04
28606;BME280;46498;49.968;7.754;2023-03-01T10:01:32;97735.00;;;2.22;59.53
28606;BME280;46498;49.968;7.754;2023-03-01T10:06:35;97737.00;;;2.06;59.03
28606;BME280;46498;49.968;7.754;2023-03-01T10:11:38;97743.00;;;2.69;58.35
28606;BME280;46498;49.968;7.754;2023-03-01T10:16:54;97734.00;;;2.81;59.57
28606;BME280;46498;49.968;7.754;2023-03-01T10:22:03;97729.00;;;2.91;58.34
28606;BME280;46498;49.968;7.754;2023-03-01T10:27:14;97735.00;;;3.39;59.15
28606;BME280;46498;49.968;7.754;2023-03-01T10:32:18;97730.00;;;3.46;57.11
28606;BME280;46498;49.968;7.754;2023-03-01T10:37:20;97720.00;;;3.54;55.14
28606;BME280;46498;49.968;7.754;2023-03-01T10:42:49;97713.00;;;3.25;54.35
28606;BME280;46498;49.968;7.754;2023-03-01T10:48:17;97704.00;;;3.93;54.26
28606;BME280;46498;49.968;7.754;2023-03-01T10:53:23;97694.00;;;4.33;56.65
28606;BME280;46498;49.968;7.754;2023-03-01T10:58:25;97679.00;;;4.10;53.21
28606;BME280;46498;49.968;7.754;2023-03-01T11:03:37;97677.00;;;4.41;53.94
28606;BME280;46498;49.968;7.754;2023-03-01T11:08:44;97670.00;;;4.38;54.33
28606;BME280;46498;49.968;7.754;2023-03-01T11:13:57;97661.00;;;3.92;52.42
28606;BME280;46498;49.968;7.754;2023-03-01T11:20:35;97648.00;;;4.06;52.31
28606;BME280;46498;49.968;7.754;2023-03-01T11:25:40;97653.00;;;4.57;53.39
28606;BME280;46498;49.968;7.754;2023-03-01T11:31:24;97645.00;;;5.29;53.37
28606;BME280;46498;49.968;7.754;2023-03-01T11:39:15;97646.00;;;4.86;50.76
28606;BME280;46498;49.968;7.754;2023-03-01T11:44:28;97652.00;;;5.27;49.36
28606;BME280;46498;49.968;7.754;2023-03-01T12:02:12;97643.00;;;6.21;48.21
28606;BME280;46498;49.968;7.754;2023-03-01T12:07:54;97629.00;;;6.86;47.09
28606;BME280;46498;49.968;7.754;2023-03-01T12:22:29;97615.00;;;7.10;47.05
28606;BME280;46498;49.968;7.754;2023-03-01T12:37:47;97579.00;;;7.21;45.17
28606;BME280;46498;49.968;7.754;2023-03-01T12:51:10;97564.00;;;7.55;44.86
28606;BME280;46498;49.968;7.754;2023-03-01T12:56:17;97556.00;;;7.40;45.97
28606;BME280;46498;49.968;7.754;2023-03-01T13:01:49;97546.00;;;7.83;45.75
28606;BME280;46498;49.968;7.754;2023-03-01T13:07:22;97540.00;;;7.64;44.93
28606;BME280;46498;49.968;7.754;2023-03-01T13:12:45;97527.00;;;7.95;43.83
28606;BME280;46498;49.968;7.754;2023-03-01T13:17:49;97525.00;;;7.96;44.95
28606;BME280;46498;49.968;7.754;2023-03-01T13:23:11;97518.00;;;7.73;44.34
28606;BME280;46498;49.968;7.754;2023-03-01T13:35:02;97512.00;;;7.79;44.15
28606;BME280;46498;49.968;7.754;2023-03-01T13:41:49;97512.00;;;8.42;42.90
28606;BME280;46498;49.968;7.754;2023-03-01T13:46:52;97506.00;;;8.13;42.91
28606;BME280;46498;49.968;7.754;2023-03-01T13:51:54;97499.00;;;8.33;43.15
28606;BME280;46498;49.968;7.754;2023-03-01T13:56:56;97500.00;;;8.69;42.36
28606;BME280;46498;49.968;7.754;2023-03-01T14:01:59;97500.00;;;8.60;41.68
28606;BME280;46498;49.968;7.754;2023-03-01T14:07:22;97493.00;;;8.38;41.59
28606;BME280;46498;49.968;7.754;2023-03-01T14:13:06;97482.00;;;8.36;41.11
28606;BME280;46498;49.968;7.754;2023-03-01T14:18:35;97481.00;;;8.36;41.57
28606;BME280;46498;49.968;7.754;2023-03-01T14:23:40;97478.00;;;8.53;41.02
28606;BME280;46498;49.968;7.754;2023-03-01T14:28:42;97480.00;;;9.13;40.53
28606;BME280;46498;49.968;7.754;2023-03-01T14:33:54;97475.00;;;9.15;39.38
28606;BME280;46498;49.968;7.754;2023-03-01T14:38:56;97483.00;;;8.73;40.66
28606;BME280;46498;49.968;7.754;2023-03-01T14:44:07;97484.00;;;8.23;40.67
28606;BME280;46498;49.968;7.754;2023-03-01T14:49:19;97487.00;;;8.01;42.13
28606;BME280;46498;49.968;7.754;2023-03-01T15:00:01;97491.00;;;8.34;41.26
28606;BME280;46498;49.968;7.754;2023-03-01T15:05:07;97498.00;;;7.98;41.72
28606;BME280;46498;49.968;7.754;2023-03-01T15:10:20;97488.00;;;7.55;43.59
28606;BME280;46498;49.968;7.754;2023-03-01T15:15:36;97485.00;;;7.51;42.92
28606;BME280;46498;49.968;7.754;2023-03-01T15:20:38;97470.00;;;7.66;41.96
28606;BME280;46498;49.968;7.754;2023-03-01T15:25:44;97455.00;;;7.43;42.61
28606;BME280;46498;49.968;7.754;2023-03-01T15:30:46;97442.00;;;7.24;43.59
28606;BME280;46498;49.968;7.754;2023-03-01T15:35:55;97441.00;;;6.58;44.29
28606;BME280;46498;49.968;7.754;2023-03-01T15:40:59;97446.00;;;6.66;44.64
28606;BME280;46498;49.968;7.754;2023-03-01T15:46:00;97454.00;;;6.43;45.46
28606;BME280;46498;49.968;7.754;2023-03-01T15:51:02;97443.00;;;6.38;45.11
28606;BME280;46498;49.968;7.754;2023-03-01T15:56:03;97463.00;;;6.13;45.62
28606;BME280;46498;49.968;7.754;2023-03-01T16:01:14;97462.00;;;5.68;46.69
28606;BME280;46498;49.968;7.754;2023-03-01T16:06:15;97463.00;;;5.58;46.31
28606;BME280;46498;49.968;7.754;2023-03-01T16:11:18;97462.00;;;5.36;46.36
28606;BME280;46498;49.968;7.754;2023-03-01T16:16:19;97464.00;;;5.10;46.39
28606;BME280;46498;49.968;7.754;2023-03-01T16:21:23;97459.00;;;4.97;47.75
28606;BME280;46498;49.968;7.754;2023-03-01T16:26:25;97459.00;;;5.00;46.73
28606;BME280;46498;49.968;7.754;2023-03-01T16:31:26;97456.00;;;4.88;47.13
28606;BME280;46498;49.968;7.754;2023-03-01T16:36:28;97456.00;;;4.55;47.46
28606;BME280;46498;49.968;7.754;2023-03-01T16:41:29;97451.00;;;4.55;47.88
28606;BME280;46498;49.968;7.754;2023-03-01T16:46:30;97468.00;;;4.37;48.12
28606;BME280;46498;49.968;7.754;2023-03-01T16:51:31;97463.00;;;4.22;47.85
28606;BME280;46498;49.968;7.754;2023-03-01T16:56:35;97465.00;;;4.04;48.34
28606;BME280;46498;49.968;7.754;2023-03-01T17:01:38;97477.00;;;3.91;49.07
28606;BME280;46498;49.968;7.754;2023-03-01T17:06:41;97469.00;;;3.89;49.13
28606;BME280;46498;49.968;7.754;2023-03-01T17:11:42;97477.00;;;3.72;49.04
28606;BME280;46498;49.968;7.754;2023-03-01T17:16:44;97483.00;;;3.51;49.87
28606;BME280;46498;49.968;7.754;2023-03-01T17:21:45;97472.00;;;3.50;49.60
28606;BME280;46498;49.968;7.754;2023-03-01T17:26:46;97483.00;;;3.38;49.97
28606;BME280;46498;49.968;7.754;2023-03-01T17:31:47;97494.00;;;3.25;50.30
28606;BME280;46498;49.968;7.754;2023-03-01T17:36:49;97491.00;;;3.13;50.38
28606;BME280;46498;49.968;7.754;2023-03-01T17:41:51;97496.00;;;3.04;50.29
28606;BME280;46498;49.968;7.754;2023-03-01T17:46:52;97493.00;;;3.09;50.32
28606;BME280;46498;49.968;7.754;2023-03-01T17:51:53;97484.00;;;3.01;50.32
28606;BME280;46498;49.968;7.754;2023-03-01T17:56:54;97484.00;;;2.86;50.82
28606;BME280;46498;49.968;7.754;2023-03-01T18:01:57;97492.00;;;3.01;50.00
28606;BME280;46498;49.968;7.754;2023-03-01T18:07:01;97496.00;;;3.04;49.54
28606;BME280;46498;49.968;7.754;2023-03-01T18:12:02;97491.00;;;2.97;49.71
28606;BME280;46498;49.968;7.754;2023-03-01T18:17:03;97498.00;;;2.80;50.04
28606;BME280;46498;49.968;7.754;2023-03-01T18:22:11;97487.00;;;2.81;50.05
28606;BME280;46498;49.968;7.754;2023-03-01T18:27:12;97476.00;;;2.84;50.04
28606;BME280;46498;49.968;7.754;2023-03-01T18:32:14;97464.00;;;2.71;50.33
28606;BME280;46498;49.968;7.754;2023-03-01T18:37:15;97458.00;;;2.78;49.64
28606;BME280;46498;49.968;7.754;2023-03-01T18:42:17;97455.00;;;2.71;49.95
28606;BME280;46498;49.968;7.754;2023-03-01T18:47:20;97459.00;;;2.66;49.96
28606;BME280;46498;49.968;7.754;2023-03-01T18:52:21;97453.00;;;2.61;49.84
28606;BME280;46498;49.968;7.754;2023-03-01T18:57:22;97455.00;;;2.51;49.99
28606;BME280;46498;49.968;7.754;2023-03-01T19:02:22;97440.00;;;2.51;50.16
28606;BME280;46498;49.968;7.754;2023-03-01T19:07:23;97438.00;;;2.57;49.89
28606;BME280;46498;49.968;7.754;2023-03-01T19:12:25;97443.00;;;2.56;49.95
28606;BME280;46498;49.968;7.754;2023-03-01T19:17:27;97438.00;;;2.48;50.04
28606;BME280;46498;49.968;7.754;2023-03-01T19:22:30;97447.00;;;2.59;50.12
28606;BME280;46498;49.968;7.754;2023-03-01T19:27:31;97458.00;;;2.40;50.04
28606;BME280;46498;49.968;7.754;2023-03-01T19:32:32;97463.00;;;2.45;50.46
28606;BME280;46498;49.968;7.754;2023-03-01T19:37:33;97458.00;;;2.39;50.75
28606;BME280;46498;49.968;7.754;2023-03-01T19:42:35;97462.00;;;2.31;51.18
28606;BME280;46498;49.968;7.754;2023-03-01T19:47:35;97467.00;;;2.13;51.65
28606;BME280;46498;49.968;7.754;2023-03-01T19:52:36;97460.00;;;2.07;52.26
28606;BME280;46498;49.968;7.754;2023-03-01T19:57:37;97464.00;;;2.19;52.02
28606;BME280;46498;49.968;7.754;2023-03-01T20:02:38;97466.00;;;2.04;52.47
28606;BME280;46498;49.968;7.754;2023-03-01T20:07:39;97471.00;;;2.01;52.62
28606;BME280;46498;49.968;7.754;2023-03-01T20:12:40;97471.00;;;1.99;52.97
28606;BME280;46498;49.968;7.754;2023-03-01T20:17:41;97472.00;;;2.01;52.91
28606;BME280;46498;49.968;7.754;2023-03-01T20:22:42;97470.00;;;1.85;53.49
28606;BME280;46498;49.968;7.754;2023-03-01T20:27:43;97471.00;;;1.89;53.94
28606;BME280;46498;49.968;7.754;2023-03-01T20:32:47;97466.00;;;1.86;54.34
28606;BME280;46498;49.968;7.754;2023-03-01T20:37:50;97462.00;;;1.81;54.57
28606;BME280;46498;49.968;7.754;2023-03-01T20:42:52;97465.00;;;1.81;55.23
28606;BME280;46498;49.968;7.754;2023-03-01T20:47:53;97470.00;;;1.88;55.11
28606;BME280;46498;49.968;7.754;2023-03-01T20:52:55;97463.00;;;1.97;55.12
28606;BME280;46498;49.968;7.754;2023-03-01T20:57:55;97461.00;;;1.99;55.28
28606;BME280;46498;49.968;7.754;2023-03-01T21:02:57;97469.00;;;1.93;55.49
28606;BME280;46498;49.968;7.754;2023-03-01T21:07:58;97461.00;;;1.99;55.47
28606;BME280;46498;49.968;7.754;2023-03-01T21:13:02;97461.00;;;1.94;55.44
28606;BME280;46498;49.968;7.754;2023-03-01T21:18:03;97461.00;;;1.99;55.82
28606;BME280;46498;49.968;7.754;2023-03-01T21:23:03;97466.00;;;2.03;55.67
28606;BME280;46498;49.968;7.754;2023-03-01T21:28:04;97445.00;;;1.99;55.71
28606;BME280;46498;49.968;7.754;2023-03-01T21:33:05;97447.00;;;1.84;56.26
28606;BME280;46498;49.968;7.754;2023-03-01T21:38:06;97450.00;;;1.98;56.11
28606;BME280;46498;49.968;7.754;2023-03-01T21:43:07;97451.00;;;1.83;56.47
28606;BME280;46498;49.968;7.754;2023-03-01T21:48:07;97462.00;;;1.90;56.08
28606;BME280;46498;49.968;7.754;2023-03-01T21:53:08;97457.00;;;1.83;56.18
28606;BME280;46498;49.968;7.754;2023-03-01T21:58:09;97448.00;;;1.82;56.39
28606;BME280;46498;49.968;7.754;2023-03-01T22:03:10;97456.00;;;1.81;56.31
28606;BME280;46498;49.968;7.754;2023-03-01T22:08:11;97445.00;;;1.66;57.30
28606;BME280;46498;49.968;7.754;2023-03-01T22:13:12;97445.00;;;1.62;57.43
28606;BME280;46498;49.968;7.754;2023-03-01T22:18:13;97439.00;;;1.60;57.78
28606;BME280;46498;49.968;7.754;2023-03-01T22:23:13;97434.00;;;1.48;59.13
28606;BME280;46498;49.968;7.754;2023-03-01T22:28:14;97422.00;;;1.52;59.46
28606;BME280;46498;49.968;7.754;2023-03-01T22:33:15;97439.00;;;1.41;60.08
28606;BME280;46498;49.968;7.754;2023-03-01T22:38:16;97431.00;;;1.36;60.29
28606;BME280;46498;49.968;7.754;2023-03-01T22:43:17;97431.00;;;1.48;59.79
28606;BME280;46498;49.968;7.754;2023-03-01T22:48:17;97432.00;;;1.40;60.99
28606;BME280;46498;49.968;7.754;2023-03-01T22:53:18;97429.00;;;1.38;61.30
28606;BME280;46498;49.968;7.754;2023-03-01T22:58:20;97418.00;;;1.38;61.14
28606;BME280;46498;49.968;7.754;2023-03-01T23:03:21;97427.00;;;1.30;61.95
28606;BME280;46498;49.968;7.754;2023-03-01T23:08:22;97421.00;;;1.28;62.48
28606;BME280;46498;49.968;7.754;2023-03-01T23:13:22;97412.00;;;1.32;62.55
28606;BME280;46498;49.968;7.754;2023-03-01T23:18:23;97413.00;;;1.33;62.83
28606;BME280;46498;49.968;7.754;2023-03-01T23:23:24;97418.00;;;1.33;63.20
28606;BME280;46498;49.968;7.754;2023-03-01T23:28:25;97423.00;;;1.34;63.50
28606;BME280;46498;49.968;7.754;2023-03-01T23:33:27;97419.00;;;1.29;64.00
28606;BME280;46498;49.968;7.754;2023-03-01T23:38:29;97417.00;;;1.20;64.41
28606;BME280;46498;49.968;7.754;2023-03-01T23:43:30;97417.00;;;1.31;64.10
28606;BME280;46498;49.968;7.754;2023-03-01T23:48:32;97413.00;;;1.21;64.78
28606;BME280;46498;49.968;7.754;2023-03-01T23:53:37;97408.00;;;1.25;64.59
28606;BME280;46498;49.968;7.754;2023-03-01T23:58:39;97410.00;;;1.17;65.19
